Aktualne dane pomiarowe

Uwaga, wersja testowa! Automatyczne pobieranie danych za pomocą narzędzi lub skryptów to umożliwiających jest zabronione.

Dane meteo z obszaru Polski uzyskane na podstawie depesz SYNOP pobieranych co godzinę z NWS. Najedź myszką na symbol przedstawiony w tabeli, aby uzyskać informacje co do jego znaczenia. Prosimy pamiętać, że to testowa wersja strony, która jeszcze nie jest ukończona. Stworzono również jest krótki FAQ dotyczący korzystania z tej podstrony Anomalie temperatury w chwili obecnej odniesione są do okresu referencyjnego 1951-2016. Okres ten będzie później zmieniony na 1981-2010. Kliknij ikonę aby pobrać plik CSV. Kliknij ikonę aby wygenerować mapę synoptyczną dla danego terminu.

Wybierz Datę:    

        

Terespol (12399)

Dane terminowe dla wybranej stacji. Kliknij datę, aby otrzymać dane z tego terminu dla wszystkich stacji.

TemperaturaZachmurzenieWiatrCiśnienieOpadyPogoda
 Data t td wb tx tn tg rh  Nt Nl Cl Cm Ch ws wd g1 g2 wx mslp ppp ch 24h 12h t ww ww w1 w2  
2019-07-12 23:00:00 11.7 10.9 11.1--- 9510.0wx-wx0---01010.0 993.5 -0.4---------
2019-07-12 22:00:00 12.4 11.1 11.5--- 9215.0wx-wx0----1010.0 993.5 0.0---------
2019-07-12 21:00:00 13.9 12.1 12.6--- 8920.0wx-wx0---01010.0 993.6 0.6---------
2019-07-12 20:00:00 15.5 13.5 14.1--- 8821.0wxwxwxwx0---01010.2 993.9 1.0---------
2019-07-12 19:00:00 16.6 13.9 14.7--- 8435.0wxwxwx0---01009.8 993.5 0.6---------
2019-07-12 18:00:00 19.4 13.1 15.3 24.0 14.8- 6740.0wxwxwxwxwx0--1101009.1 993.0 -0.2- 0.612wx-w1w2--
2019-07-12 17:00:00 21.4 11.4 15.3--- 5330.0wxwxwxwxwx1wx--11008.9 992.9 -0.2---wx---
2019-07-12 16:00:00 20.8 10.6 14.7--- 5240.0wxwxwxwxwx2wx--21008.9 992.9 -0.2---------
2019-07-12 15:00:00 21.0 10.8 14.9--- 5240.0wxwxwxwxwx2wx-1121009.2 993.2 0.0---wx-w1--
2019-07-12 14:00:00 20.0 13.0 15.5--- 6440.0wxwxwx2wx-1121009.2 993.1 -0.4---wx-w1--
2019-07-12 13:00:00 23.0 8.7 14.8--- 4040.0wxwxwxwx4wx-941009.0 993.1 -0.5---------
2019-07-12 12:00:00 23.0 9.0 14.9--- 4135.0wxwxwxwx4wx-1041009.1 993.2 -0.5- 0.06------
2019-07-12 11:00:00 22.7 8.4 14.5--- 4035.0wxwxwxwxwx5wx--51009.4 993.5 -0.2---------
2019-07-12 10:00:00 21.3 8.2 13.8--- 4340.0wxwxwxwxwx4wx--41009.6 993.6 -0.3---------
2019-07-12 09:00:00 21.3 6.8 13.2--- 3930.0wxwxwxwxwx5wx10--1009.7 993.7 -0.4---------
2019-07-12 08:00:00 20.3 7.6 13.1--- 4430.0wxwxwxwxwx3wx--31009.8 993.7 -0.3---------
2019-07-12 07:00:00 18.1 10.0 13.2--- 5927.0wxwxwxwxwx3wx--31010.1 993.9 -0.1---------
2019-07-12 06:00:00 14.8 10.6 12.1 16.7 10.0 7 7635.0wxwxwxwx2wx--21010.5 994.1 0.2 3.4-12wx-- 2.7
2019-07-12 05:00:00 13.1 11.2 11.8--- 8828.0wxwxwxwx1wx---1010.5 994.0 0.3---------
2019-07-12 04:00:00 11.0 10.4 10.5--- 9610.0wxwxwxwxwx1wx--11010.6 994.0 0.2---------
2019-07-12 03:00:00 10.0 9.1 9.3--- 949.0wx-wxwx1wx--11010.6 993.9 -0.1---wx---
2019-07-12 02:00:00 11.3 10.2 10.5--- 937.0wxwxwxwx1wx--11010.3 993.7 -0.6---wx---
2019-07-12 01:00:00 12.8 10.9 11.5--- 8826.0wx-wx1wx--11010.3 993.8 -0.5---------
2019-07-12 00:00:00 12.8 11.2 11.7--- 9024.0wxwxwxwx1wx--11010.5 994.0 -0.2- 0.06------
2019-07-11 23:00:00 12.3 11.4 11.6--- 9412.0wxwxwxwx0---01010.8 994.3 0.2---------
2019-07-11 22:00:00 12.2 10.8 11.2--- 9116.0wxwxwxwx1wx--11010.8 994.3 0.1---------
2019-07-11 21:00:00 13.0 10.9 11.6--- 8715.0wxwxwxwx1wx--11010.7 994.2 0.3---------
2019-07-11 20:00:00 14.2 11.7 12.5--- 8518.0wxwxwxwx1wx--11010.5 994.1 0.3---------
2019-07-11 19:00:00 15.4 12.5 13.4--- 8321.0wxwxwx1wx--11010.5 994.2 0.6---------
2019-07-11 18:00:00 16.7 11.0 13.1 18.9 12.4- 6945.0wxwxwx1wx-911010.2 993.9 0.4- 3.012wx-w1--
2019-07-11 17:00:00 17.1 10.7 13.1--- 6630.0wxwxwx2wx--21010.0 993.8 0.6---------
2019-07-11 16:00:00 17.8 11.6 13.9--- 6735.0wxwxwxwx3wx-631009.8 993.6 0.2---------
2019-07-11 15:00:00 15.7 14.1 14.6--- 9014.0wxwxwx1wx-911009.8 993.5 0.1---wx-w1--
2019-07-11 14:00:00 18.6 11.4 14.1--- 6330.0wxwxwxwx4wx--41009.3 993.2 -0.4---wx---
2019-07-11 13:00:00 17.1 13.6 14.7--- 8030.0wxwxwxwx1wx-911009.6 993.4 0.0---wx---
2019-07-11 12:00:00 17.3 12.2 14.0--- 7235.0wxwxwx3wx-931009.6 993.4 -0.3--6wx-w1--
2019-07-11 11:00:00 15.7 10.9 12.6--- 7335.0wxwxwx3wx-931009.9 993.6 0.1---------
2019-07-11 10:00:00 17.1 10.9 13.2--- 6730.0wxwxwxwx2wx--21009.6 993.4 0.0---wx---
2019-07-11 09:00:00 16.5 11.2 13.1--- 7125.0wxwxwx3wx--31010.0 993.7 0.4---------
2019-07-11 08:00:00 15.8 12.4 13.5--- 8026.0wxwxwxwx2wx--21009.8 993.5 0.5---------
2019-07-11 07:00:00 14.2 12.1 12.7--- 8721.0wxwxwx2wx---1009.8 993.4 0.5---------
2019-07-11 06:00:00 12.4 11.5 11.7 13.8 9.6 8 9412.0wxwxwx2wx--21009.8 993.3 0.3 1.9-12wx-w1- 3.2
2019-07-11 05:00:00 11.5 10.7 10.9--- 9510.0wxwxwx2wx--21009.5 993.0 0.1---wx---
2019-07-11 04:00:00 10.6 9.8 10.0--- 9510.0wxwxwx2wx--21009.5 992.9 0.0---wx---
2019-07-11 03:00:00 10.1 9.5 9.6--- 9611.0wxwxwx1wx--11009.6 993.0 0.0---------
2019-07-11 02:00:00 9.7 9.1 9.2--- 9612.0wxwxwxwx2wx--21009.6 992.9 -0.3---------
2019-07-11 01:00:00 9.9 9.1 9.3--- 9515.0wxwxwxwxwx2wx--21009.5 992.9 -0.2---------
2019-07-11 00:00:00 10.6 9.5 9.8--- 9319.0wxwxwxwx2wx--21009.6 993.0 0.1- 0.06------
1.7 ms

 

Print Friendly, PDF & Email